createdAt,value
2022-10-21T00:00:31.593Z,41.03
2022-10-21T00:02:58.777Z,39.20
2022-10-21T00:05:25.724Z,34.77
2022-10-21T00:07:52.676Z,35.90
2022-10-21T00:10:19.966Z,42.17
2022-10-21T00:12:46.829Z,39.87
2022-10-21T00:15:13.906Z,40.10
2022-10-21T00:17:43.288Z,47.43
2022-10-21T00:20:12.385Z,35.53
2022-10-21T00:22:39.775Z,37.80
2022-10-21T00:25:07.607Z,37.67
2022-10-21T00:27:35.122Z,37.13
2022-10-21T00:30:04.217Z,32.80
2022-10-21T00:32:31.130Z,38.67
2022-10-21T00:34:58.014Z,42.40
2022-10-21T00:37:25.012Z,39.80
2022-10-21T00:39:52.945Z,35.10
2022-10-21T00:42:22.863Z,39.13
2022-10-21T00:45:08.000Z,38.03
2022-10-21T00:47:49.970Z,33.53
2022-10-21T00:50:44.759Z,34.37
2022-10-21T00:53:14.735Z,33.70
2022-10-21T00:55:51.431Z,41.23
2022-10-21T00:58:21.586Z,32.33
2022-10-21T01:00:50.390Z,34.63
2022-10-21T01:03:17.483Z,37.03
2022-10-21T01:05:45.352Z,35.87
2022-10-21T01:08:12.860Z,33.43
2022-10-21T01:10:40.057Z,33.60
2022-10-21T01:13:41.324Z,36.40
2022-10-21T01:16:44.334Z,34.40
2022-10-21T01:19:56.982Z,30.93
2022-10-21T01:23:12.735Z,29.40
2022-10-21T01:26:12.854Z,29.83
2022-10-21T01:29:17.379Z,33.67
2022-10-21T01:31:59.499Z,31.43
2022-10-21T01:34:52.123Z,36.00
2022-10-21T01:37:53.432Z,32.67
2022-10-21T01:40:53.956Z,27.17
2022-10-21T01:43:37.907Z,31.10
2022-10-21T01:46:35.329Z,28.77
2022-10-21T01:49:10.798Z,29.73
2022-10-21T01:51:38.189Z,29.70
2022-10-21T01:54:22.985Z,40.60
2022-10-21T01:56:50.779Z,45.13
2022-10-21T01:59:19.886Z,37.73
2022-10-21T02:01:48.191Z,49.57
2022-10-21T02:04:16.576Z,38.60
2022-10-21T02:06:43.479Z,36.43
2022-10-21T02:09:10.442Z,35.67
2022-10-21T02:11:39.181Z,40.83
2022-10-21T02:14:17.023Z,36.90
2022-10-21T02:16:45.604Z,30.20
2022-10-21T02:19:19.198Z,34.70
2022-10-21T02:21:48.858Z,29.67
2022-10-21T02:24:29.727Z,37.47
2022-10-21T02:26:56.713Z,31.50
2022-10-21T02:29:29.646Z,34.03
2022-10-21T02:32:08.234Z,35.20
2022-10-21T02:35:13.774Z,33.10
2022-10-21T02:38:06.647Z,30.77
2022-10-21T02:40:36.998Z,30.00
2022-10-21T02:43:16.743Z,40.90
2022-10-21T02:45:47.554Z,30.93
2022-10-21T02:48:14.511Z,34.73
2022-10-21T02:50:41.521Z,31.53
2022-10-21T02:53:10.776Z,31.50
2022-10-21T02:55:37.658Z,31.73
2022-10-21T02:58:04.759Z,31.87
2022-10-21T03:00:32.974Z,24.80
2022-10-21T03:03:00.592Z,31.23
2022-10-21T03:05:27.692Z,33.07
2022-10-21T03:07:54.628Z,33.40
2022-10-21T03:10:21.572Z,26.93
2022-10-21T03:12:50.099Z,30.03
2022-10-21T03:15:17.345Z,28.87
2022-10-21T03:17:44.227Z,24.60
2022-10-21T03:20:11.159Z,27.97
2022-10-21T03:22:38.052Z,30.53
2022-10-21T03:25:06.242Z,32.67
2022-10-21T03:27:33.267Z,28.43
2022-10-21T03:30:00.149Z,27.47
2022-10-21T03:32:27.042Z,28.50
2022-10-21T03:34:53.940Z,32.80
2022-10-21T03:37:20.796Z,27.47
2022-10-21T03:39:47.673Z,28.17
2022-10-21T03:42:14.593Z,28.43
2022-10-21T03:44:41.589Z,25.63
2022-10-21T03:47:08.692Z,27.10
2022-10-21T03:52:07.666Z,27.70
2022-10-21T03:54:34.600Z,28.07
2022-10-21T03:57:01.477Z,30.97
2022-10-21T03:59:28.385Z,29.57
2022-10-21T04:01:55.340Z,32.23
2022-10-21T04:04:22.333Z,28.53
2022-10-21T04:06:49.267Z,28.30
2022-10-21T04:09:16.328Z,29.60
2022-10-21T04:11:43.332Z,28.33
2022-10-21T04:14:13.027Z,28.77
2022-10-21T04:16:42.332Z,28.23
2022-10-21T04:19:12.068Z,28.47
2022-10-21T04:21:38.957Z,27.67
2022-10-21T04:24:06.025Z,29.00
2022-10-21T04:26:32.904Z,29.07
2022-10-21T04:28:59.797Z,31.67
2022-10-21T04:31:31.271Z,27.07
2022-10-21T04:33:59.258Z,32.80
2022-10-21T04:36:26.125Z,29.77
2022-10-21T04:38:53.228Z,39.17
2022-10-21T04:41:20.117Z,41.30
2022-10-21T04:43:46.999Z,36.30
2022-10-21T04:46:15.466Z,35.27
2022-10-21T04:48:42.686Z,37.67
2022-10-21T04:51:09.692Z,33.43
2022-10-21T04:53:36.632Z,34.97
2022-10-21T04:56:04.090Z,33.20
2022-10-21T04:58:31.273Z,31.70
2022-10-21T05:00:58.429Z,25.83
2022-10-21T05:03:25.396Z,30.93
2022-10-21T05:05:53.425Z,31.07
2022-10-21T05:08:21.045Z,27.70
2022-10-21T05:10:48.319Z,28.53
2022-10-21T05:13:15.506Z,26.40
2022-10-21T05:15:42.387Z,26.80
2022-10-21T05:18:09.255Z,25.13
2022-10-21T05:20:36.146Z,25.57
2022-10-21T05:23:03.388Z,26.23
2022-10-21T05:25:33.279Z,28.90
2022-10-21T05:28:01.337Z,27.03
2022-10-21T05:30:28.334Z,28.07
2022-10-21T05:32:55.297Z,25.97
2022-10-21T05:35:22.131Z,31.07
2022-10-21T05:37:49.023Z,26.57
2022-10-21T05:40:16.116Z,27.67
2022-10-21T05:42:43.028Z,27.43
2022-10-21T05:45:10.757Z,27.17
2022-10-21T05:47:40.280Z,24.57
2022-10-21T05:50:09.416Z,26.93
2022-10-21T05:52:36.610Z,27.87
2022-10-21T05:55:04.303Z,25.67
2022-10-21T05:57:38.659Z,29.27
2022-10-21T06:00:07.082Z,24.13
2022-10-21T06:02:34.067Z,30.77
2022-10-21T06:05:00.942Z,28.73
2022-10-21T06:07:27.848Z,25.23
2022-10-21T06:09:55.260Z,25.33
2022-10-21T06:12:22.589Z,29.00
2022-10-21T06:14:49.528Z,23.13
2022-10-21T06:17:16.441Z,31.07
2022-10-21T06:19:45.955Z,25.40
2022-10-21T06:22:15.936Z,25.03
2022-10-21T06:24:42.804Z,30.67
2022-10-21T06:27:09.712Z,27.80
2022-10-21T06:29:36.722Z,26.70
2022-10-21T06:32:03.723Z,23.73
2022-10-21T06:34:30.726Z,28.07
2022-10-21T06:36:57.690Z,25.73
2022-10-21T06:39:24.608Z,25.50
2022-10-21T06:41:51.542Z,23.13
2022-10-21T06:44:38.389Z,29.07
2022-10-21T06:47:05.318Z,24.60
2022-10-21T06:49:32.180Z,25.20
2022-10-21T06:51:59.061Z,23.97
2022-10-21T06:54:26.494Z,24.77
2022-10-21T06:56:53.400Z,23.03
2022-10-21T06:59:20.371Z,26.10
2022-10-21T07:01:59.691Z,25.30
2022-10-21T07:04:27.500Z,20.40
2022-10-21T07:06:54.456Z,22.30
2022-10-21T07:09:21.498Z,25.70
2022-10-21T07:11:48.403Z,21.40
2022-10-21T07:14:15.316Z,21.83
2022-10-21T07:16:42.224Z,24.23
2022-10-21T07:19:10.306Z,22.47
2022-10-21T07:21:37.317Z,26.93
2022-10-21T07:24:04.391Z,31.43
2022-10-21T07:26:33.375Z,27.17
2022-10-21T07:29:01.075Z,26.50
2022-10-21T07:31:31.719Z,23.77
2022-10-21T07:34:01.086Z,36.20
2022-10-21T07:36:32.455Z,24.20
2022-10-21T07:39:05.318Z,27.87
2022-10-21T07:41:38.015Z,28.13
2022-10-21T07:44:06.193Z,22.83
2022-10-21T07:46:34.754Z,22.00
2022-10-21T07:49:01.684Z,21.33
2022-10-21T07:51:31.011Z,27.53
2022-10-21T07:54:00.370Z,22.77
2022-10-21T07:56:38.894Z,24.40
2022-10-21T07:59:11.686Z,21.33
2022-10-21T08:01:44.396Z,21.20
2022-10-21T08:04:15.524Z,19.37
2022-10-21T08:06:43.731Z,22.67
2022-10-21T08:09:10.683Z,25.63
2022-10-21T08:11:37.845Z,17.70
2022-10-21T08:14:07.930Z,20.97
2022-10-21T08:16:36.434Z,21.20
2022-10-21T08:19:05.021Z,22.17
2022-10-21T08:21:32.124Z,19.97
2022-10-21T08:24:02.047Z,20.97
2022-10-21T08:26:31.192Z,20.60
2022-10-21T08:31:30.564Z,24.63
2022-10-21T08:33:58.209Z,20.10
2022-10-21T08:36:26.147Z,22.70
2022-10-21T08:38:54.341Z,23.53
2022-10-21T08:41:30.555Z,20.47
2022-10-21T08:44:22.178Z,18.47
2022-10-21T08:46:59.721Z,23.93
2022-10-21T08:50:06.698Z,19.20
2022-10-21T08:53:02.110Z,18.40
2022-10-21T08:55:36.132Z,20.63
2022-10-21T08:58:04.465Z,19.53
2022-10-21T09:00:58.855Z,20.30
2022-10-21T09:03:54.402Z,24.00
2022-10-21T09:07:24.721Z,21.23
2022-10-21T09:10:04.841Z,19.17
2022-10-21T09:13:00.183Z,19.57
2022-10-21T09:16:28.282Z,24.13
2022-10-21T09:19:32.085Z,19.53
2022-10-21T09:22:35.235Z,20.23
2022-10-21T09:25:23.951Z,18.80
2022-10-21T09:27:56.036Z,18.77
2022-10-21T09:30:24.340Z,22.70
2022-10-21T09:32:58.366Z,23.83
2022-10-21T09:35:37.807Z,18.77
2022-10-21T09:38:10.496Z,22.53
2022-10-21T09:40:37.342Z,18.73
2022-10-21T09:43:05.805Z,20.33
2022-10-21T09:45:38.995Z,20.50
2022-10-21T09:48:17.717Z,21.37
2022-10-21T09:51:00.023Z,19.33
2022-10-21T09:53:54.748Z,26.57
2022-10-21T09:56:50.682Z,16.77
2022-10-21T09:59:21.510Z,21.57
2022-10-21T10:01:49.851Z,18.17
2022-10-21T10:04:35.347Z,13.97
2022-10-21T10:07:30.718Z,20.30
2022-10-21T10:09:57.590Z,17.20
2022-10-21T10:12:27.817Z,19.07
2022-10-21T10:14:55.672Z,16.97
2022-10-21T10:17:39.737Z,20.00
2022-10-21T10:20:14.710Z,15.33
2022-10-21T10:22:43.527Z,18.13
2022-10-21T10:25:21.793Z,21.97
2022-10-21T10:27:57.570Z,20.30
2022-10-21T10:30:42.664Z,17.57
2022-10-21T10:33:31.662Z,17.10
2022-10-21T10:36:05.391Z,19.67
2022-10-21T10:38:42.864Z,18.93
2022-10-21T10:41:17.236Z,20.60
2022-10-21T10:43:55.122Z,21.17
2022-10-21T10:46:34.569Z,17.30
2022-10-21T10:49:35.149Z,17.13
2022-10-21T10:52:21.426Z,13.37
2022-10-21T10:54:49.397Z,19.37
2022-10-21T10:57:34.153Z,17.17
2022-10-21T11:00:21.474Z,17.43
2022-10-21T11:03:05.438Z,18.20
2022-10-21T11:05:51.326Z,15.90
2022-10-21T11:08:56.575Z,15.53
2022-10-21T11:11:45.096Z,17.48
2022-10-21T11:14:18.940Z,16.43
2022-10-21T11:17:06.676Z,20.17
2022-10-21T11:19:49.659Z,19.63
2022-10-21T11:22:45.400Z,19.70
2022-10-21T11:25:42.908Z,19.93
2022-10-21T11:28:26.399Z,20.13
2022-10-21T11:31:43.759Z,17.08
2022-10-21T11:34:48.754Z,17.85
2022-10-21T11:37:28.546Z,20.63
2022-10-21T11:40:38.242Z,17.70
2022-10-21T11:43:57.237Z,39.92
2022-10-21T11:46:44.754Z,39.97
2022-10-21T11:49:50.459Z,16.83
2022-10-21T11:52:44.800Z,12.93
2022-10-21T11:55:45.877Z,24.50
2022-10-21T11:58:36.095Z,16.73
2022-10-21T12:01:38.675Z,19.55
2022-10-21T12:04:31.538Z,17.08
2022-10-21T12:07:13.435Z,20.27
2022-10-21T12:10:13.451Z,18.77
2022-10-21T12:12:46.481Z,17.45
2022-10-21T12:15:29.324Z,27.45
2022-10-21T12:17:57.754Z,18.27
2022-10-21T12:20:27.088Z,19.47
2022-10-21T12:23:04.011Z,19.50
2022-10-21T12:25:45.869Z,22.38
2022-10-21T12:28:18.518Z,15.80
2022-10-21T12:30:58.117Z,17.83
2022-10-21T12:33:44.248Z,18.20
2022-10-21T12:36:45.280Z,15.73
2022-10-21T12:39:33.856Z,21.95
2022-10-21T12:42:18.448Z,17.57
2022-10-21T12:44:48.551Z,20.83
2022-10-21T12:47:32.395Z,22.47
2022-10-21T12:50:14.390Z,21.57
2022-10-21T12:52:42.961Z,19.75
2022-10-21T12:55:25.847Z,18.88
2022-10-21T12:58:03.058Z,20.45
2022-10-21T13:00:29.921Z,18.73
2022-10-21T13:03:14.630Z,18.02
2022-10-21T13:05:41.419Z,19.47
2022-10-21T13:08:23.223Z,22.48
2022-10-21T13:11:05.082Z,17.65
2022-10-21T13:13:43.677Z,23.77
2022-10-21T13:16:19.671Z,22.37
2022-10-21T13:19:17.454Z,15.20
2022-10-21T13:21:47.360Z,18.98
2022-10-21T13:24:23.447Z,17.88
2022-10-21T13:26:55.859Z,22.60
2022-10-21T13:29:26.906Z,17.08
2022-10-21T13:32:17.327Z,23.48
2022-10-21T13:35:19.254Z,23.55
2022-10-21T13:38:20.054Z,22.70
2022-10-21T13:40:53.684Z,23.67
2022-10-21T13:43:35.471Z,22.98
2022-10-21T13:46:19.638Z,21.17
2022-10-21T13:48:48.821Z,23.83
2022-10-21T13:51:26.248Z,21.20
2022-10-21T13:53:59.916Z,21.40
2022-10-21T13:56:34.353Z,25.17
2022-10-21T13:59:02.261Z,20.45
2022-10-21T14:01:46.459Z,19.00
2022-10-21T14:04:17.283Z,22.70
2022-10-21T14:06:51.268Z,20.20
2022-10-21T14:09:28.186Z,20.05
2022-10-21T14:12:05.801Z,22.95
2022-10-21T14:14:36.579Z,20.17
2022-10-21T14:17:13.784Z,22.98
2022-10-21T14:19:41.151Z,21.13
2022-10-21T14:22:10.715Z,20.67
2022-10-21T14:24:47.431Z,21.70
2022-10-21T14:27:19.785Z,19.55
2022-10-21T14:29:47.710Z,20.45
2022-10-21T14:32:18.125Z,20.17
2022-10-21T14:35:06.816Z,19.73
2022-10-21T14:37:44.875Z,22.80
2022-10-21T14:40:24.115Z,19.60
2022-10-21T14:42:53.324Z,20.77
2022-10-21T14:45:30.081Z,36.08
2022-10-21T14:48:15.009Z,29.88
2022-10-21T14:50:43.429Z,36.17
2022-10-21T14:53:17.796Z,30.00
2022-10-21T14:55:46.255Z,33.28
2022-10-21T14:58:29.304Z,34.65
2022-10-21T15:00:59.961Z,37.42
2022-10-21T15:03:43.236Z,27.23
2022-10-21T15:06:37.433Z,27.23
2022-10-21T15:09:10.419Z,31.70
2022-10-21T15:11:41.695Z,40.30
2022-10-21T15:14:28.764Z,29.30
2022-10-21T15:17:04.158Z,28.30
2022-10-21T15:20:02.394Z,25.02
2022-10-21T15:22:34.227Z,25.67
2022-10-21T15:25:09.273Z,26.58
2022-10-21T15:27:42.502Z,20.85
2022-10-21T15:30:21.975Z,31.70
2022-10-21T15:32:50.285Z,24.17
2022-10-21T15:35:22.575Z,24.58
2022-10-21T15:37:51.617Z,25.02
2022-10-21T15:40:20.215Z,31.90
2022-10-21T15:42:48.116Z,37.08
2022-10-21T15:45:23.088Z,36.72
2022-10-21T15:47:54.919Z,44.85
2022-10-21T15:50:25.829Z,37.92
2022-10-21T15:52:53.476Z,44.22
2022-10-21T15:55:20.399Z,42.47
2022-10-21T15:57:47.394Z,42.00
2022-10-21T16:00:23.822Z,37.50
2022-10-21T16:02:51.915Z,41.47
2022-10-21T16:05:21.304Z,35.72
2022-10-21T16:07:48.171Z,32.75
2022-10-21T16:10:29.597Z,28.00
2022-10-21T16:12:57.696Z,31.05
2022-10-21T16:15:25.755Z,27.02
2022-10-21T16:17:56.738Z,26.58
2022-10-21T16:20:30.142Z,25.65
2022-10-21T16:23:01.952Z,31.58
2022-10-21T16:25:31.030Z,29.55
2022-10-21T16:27:57.951Z,28.30
2022-10-21T16:30:29.654Z,27.88
2022-10-21T16:32:57.346Z,26.42
2022-10-21T16:35:24.605Z,23.83
2022-10-21T16:37:52.123Z,28.80
2022-10-21T16:40:28.954Z,27.73
2022-10-21T16:42:55.989Z,27.45
2022-10-21T16:45:28.685Z,32.55
2022-10-21T16:47:58.145Z,40.42
2022-10-21T16:50:40.509Z,41.15
2022-10-21T16:53:13.917Z,38.47
2022-10-21T16:55:40.887Z,36.80
2022-10-21T16:58:08.071Z,37.05
2022-10-21T17:00:35.859Z,38.90
2022-10-21T17:03:02.955Z,35.40
2022-10-21T17:05:30.019Z,38.53
2022-10-21T17:07:58.597Z,45.80
2022-10-21T17:10:25.625Z,39.08
2022-10-21T17:12:58.669Z,35.42
2022-10-21T17:15:26.855Z,42.60
2022-10-21T17:17:54.083Z,38.60
2022-10-21T17:20:21.059Z,38.75
2022-10-21T17:22:47.950Z,42.00
2022-10-21T17:25:14.838Z,34.65
2022-10-21T17:27:41.994Z,40.07
2022-10-21T17:30:10.249Z,37.42
2022-10-21T17:32:37.194Z,37.50
2022-10-21T17:35:04.288Z,35.17
2022-10-21T17:37:31.231Z,39.17
2022-10-21T17:39:58.172Z,53.73
2022-10-21T17:42:25.039Z,52.90
2022-10-21T17:44:52.752Z,61.20
2022-10-21T17:47:19.654Z,59.47
2022-10-21T17:49:46.534Z,50.42
2022-10-21T17:52:13.509Z,48.83
2022-10-21T17:54:40.427Z,44.67
2022-10-21T17:57:07.310Z,44.47
2022-10-21T17:59:34.263Z,39.78
2022-10-21T18:02:01.188Z,40.53
2022-10-21T18:04:28.695Z,42.70
2022-10-21T18:06:55.553Z,46.40
2022-10-21T18:09:22.537Z,40.05
2022-10-21T18:11:49.541Z,40.50
2022-10-21T18:14:16.562Z,45.87
2022-10-21T18:16:43.486Z,46.42
2022-10-21T18:19:10.462Z,39.23
2022-10-21T18:21:37.523Z,38.63
2022-10-21T18:24:07.459Z,49.07
2022-10-21T18:26:37.092Z,47.53
2022-10-21T18:29:05.109Z,47.10
2022-10-21T18:31:35.183Z,52.90
2022-10-21T18:34:04.980Z,52.77
2022-10-21T18:36:32.269Z,49.63
2022-10-21T18:39:00.193Z,51.87
2022-10-21T18:41:28.046Z,41.63
2022-10-21T18:44:00.325Z,45.30
2022-10-21T18:46:28.962Z,43.97
2022-10-21T18:48:55.944Z,48.47
2022-10-21T18:51:23.982Z,51.77
2022-10-21T18:53:52.996Z,58.27
2022-10-21T18:56:23.667Z,58.87
2022-10-21T18:58:51.664Z,65.43
2022-10-21T19:01:21.052Z,66.47
2022-10-21T19:03:50.750Z,54.33
2022-10-21T19:06:55.187Z,49.00
2022-10-21T19:09:25.887Z,55.10
2022-10-21T19:11:53.881Z,61.50
2022-10-21T19:14:21.155Z,53.53
2022-10-21T19:16:49.042Z,56.57
2022-10-21T19:19:17.135Z,60.47
2022-10-21T19:21:44.037Z,59.53
2022-10-21T19:24:11.041Z,54.90
2022-10-21T19:26:40.490Z,48.00
2022-10-21T19:29:16.155Z,46.20
2022-10-21T19:31:44.756Z,45.43
2022-10-21T19:34:22.562Z,51.67
2022-10-21T19:36:50.132Z,51.43
2022-10-21T19:39:17.140Z,47.80
2022-10-21T19:41:44.309Z,56.07
2022-10-21T19:44:11.192Z,63.73
2022-10-21T19:46:39.291Z,74.00
2022-10-21T19:49:08.749Z,68.53
2022-10-21T19:51:36.818Z,71.90
2022-10-21T19:54:08.908Z,77.20
2022-10-21T19:56:35.886Z,76.55
2022-10-21T19:59:03.547Z,76.53
2022-10-21T20:01:31.760Z,69.43
2022-10-21T20:04:01.442Z,62.83
2022-10-21T20:06:32.040Z,70.83
2022-10-21T20:09:03.316Z,68.67
2022-10-21T20:11:30.611Z,76.17
2022-10-21T20:13:57.600Z,61.17
2022-10-21T20:16:37.230Z,57.70
2022-10-21T20:19:06.078Z,60.97
2022-10-21T20:21:35.270Z,55.17
2022-10-21T20:24:02.209Z,53.63
2022-10-21T20:26:29.462Z,49.13
2022-10-21T20:28:56.857Z,47.30
2022-10-21T20:31:23.737Z,38.57
2022-10-21T20:33:52.004Z,46.37
2022-10-21T20:36:28.755Z,41.10
2022-10-21T20:38:57.591Z,42.40
2022-10-21T20:41:33.910Z,40.17
2022-10-21T20:44:02.495Z,50.70
2022-10-21T20:46:38.074Z,46.70
2022-10-21T20:49:06.788Z,48.17
2022-10-21T20:51:34.594Z,51.80
2022-10-21T20:54:14.708Z,54.17
2022-10-21T20:56:42.615Z,50.33
2022-10-21T20:59:15.400Z,47.47
2022-10-21T21:01:45.614Z,50.77
2022-10-21T21:04:15.753Z,46.03
2022-10-21T21:06:45.817Z,39.42
2022-10-21T21:12:03.769Z,39.60
2022-10-21T21:14:31.396Z,42.87
2022-10-21T21:16:58.331Z,36.63
2022-10-21T21:19:25.824Z,39.13
2022-10-21T21:21:53.361Z,37.63
2022-10-21T21:24:20.240Z,39.17
2022-10-21T21:26:47.127Z,36.07
2022-10-21T21:29:14.329Z,42.77
2022-10-21T21:31:42.095Z,41.87
2022-10-21T21:34:09.886Z,40.53
2022-10-21T21:36:37.353Z,39.43
2022-10-21T21:39:06.608Z,40.63
2022-10-21T21:41:34.828Z,42.80
2022-10-21T21:44:01.764Z,43.10
2022-10-21T21:46:28.686Z,42.27
2022-10-21T21:49:05.085Z,39.03
2022-10-21T21:51:35.490Z,47.80
2022-10-21T21:54:04.357Z,46.00
2022-10-21T21:56:31.250Z,42.60
2022-10-21T21:58:58.618Z,41.27
2022-10-21T22:01:29.710Z,35.60
2022-10-21T22:03:57.737Z,39.17
2022-10-21T22:06:28.959Z,34.17
2022-10-21T22:08:56.470Z,36.80
2022-10-21T22:11:26.073Z,34.93
2022-10-21T22:13:53.481Z,36.00
2022-10-21T22:16:22.168Z,43.23
2022-10-21T22:18:49.263Z,34.90
2022-10-21T22:21:18.224Z,36.43
2022-10-21T22:23:46.998Z,39.38
2022-10-21T22:26:15.354Z,41.17
2022-10-21T22:28:42.775Z,37.23
2022-10-21T22:31:15.711Z,38.60
2022-10-21T22:36:16.605Z,33.07
2022-10-21T22:38:44.837Z,37.83
2022-10-21T22:41:12.940Z,36.63
2022-10-21T22:43:40.239Z,36.33
2022-10-21T22:46:21.648Z,45.17
2022-10-21T22:48:54.053Z,33.93
2022-10-21T22:51:21.546Z,33.77
2022-10-21T22:53:53.460Z,39.33
2022-10-21T22:56:24.518Z,40.57
2022-10-21T22:58:51.450Z,35.57
2022-10-21T23:01:18.309Z,40.50
2022-10-21T23:03:45.209Z,34.87
2022-10-21T23:06:12.094Z,42.28
2022-10-21T23:08:39.178Z,35.03
2022-10-21T23:11:06.145Z,35.10
2022-10-21T23:13:33.174Z,35.50
2022-10-21T23:16:00.065Z,37.20
2022-10-21T23:18:26.987Z,37.83
2022-10-21T23:20:53.905Z,37.40
2022-10-21T23:23:20.775Z,36.30
2022-10-21T23:25:47.694Z,40.35
2022-10-21T23:28:14.642Z,34.37
2022-10-21T23:30:43.256Z,40.47
2022-10-21T23:33:10.648Z,35.72
2022-10-21T23:35:37.513Z,35.33
2022-10-21T23:38:04.640Z,36.25
2022-10-21T23:40:31.544Z,35.13
2022-10-21T23:42:58.524Z,36.07
2022-10-21T23:45:25.442Z,40.67
2022-10-21T23:47:52.337Z,35.38
2022-10-21T23:50:19.255Z,38.87
2022-10-21T23:52:46.148Z,32.70
2022-10-21T23:55:13.224Z,41.40
2022-10-21T23:57:40.219Z,37.07
